This is the latest recevied weather packets stored in our database for station/object DM8MH-13. If no packets are shown the sender has not sent any weather packets the latest 1 day(s).
| Time | Temp. | Humidity | Pressure | Rain* | Wind** | Luminosity | Snow |
|---|---|---|---|---|---|---|---|
| 1778095872 | 13.33° C | 92% | 1005.3 hPa | 3.3 mm | - | 0 W/m² | - |
| 1778095271 | 13.33° C | 92% | 1005.3 hPa | 4.32 mm | - | 0 W/m² | - |
| 1778094671 | 13.33° C | 92% | 1005.3 hPa | 4.32 mm | - | 0 W/m² | - |
| 1778092872 | 13.89° C | 91% | 1005.3 hPa | 2.29 mm | - | 0 W/m² | - |
| 1778091071 | 13.89° C | 91% | 1004.8 hPa | 0 mm | - | 9 W/m² | - |
| 1778090471 | 13.89° C | 91% | 1004.6 hPa | 0 mm | - | 30 W/m² | - |
| 1778089871 | 13.89° C | 91% | 1004.4 hPa | 0 mm | - | 27 W/m² | - |
| 1778088672 | 13.89° C | 91% | 1004.4 hPa | 1.52 mm | - | 23 W/m² | - |
| 1778087471 | 13.89° C | 91% | 1004.4 hPa | 5.08 mm | - | 58 W/m² | - |
| 1778085671 | 14.44° C | 90% | 1004.2 hPa | 5.08 mm | - | 28 W/m² | - |
| 1778085071 | 14.44° C | 89% | 1004 hPa | 4.32 mm | - | 32 W/m² | - |
| 1778083871 | 15.56° C | 87% | 1004.1 hPa | 1.52 mm | - | 11 W/m² | - |
| 1778082071 | 16.11° C | 86% | 1003.7 hPa | 1.27 mm | - | 137 W/m² | - |
| 1778079671 | 18.33° C | 77% | 1003.7 hPa | 0 mm | - | 115 W/m² | - |
| 1778079071 | 18.33° C | 77% | 1003.7 hPa | 0 mm | - | 191 W/m² | - |
| 1778077872 | 18.33° C | 78% | 1003.8 hPa | 0 mm | - | 350 W/m² | - |
| 1778076671 | 20.56° C | 71% | 1003.9 hPa | 0 mm | - | 608 W/m² | - |
| 1778076071 | 21.11° C | 64% | 1004 hPa | 0 mm | - | 272 W/m² | - |
| 1778074872 | 21.67° C | 60% | 1004.2 hPa | 0 mm | - | 739 W/m² | - |
| 1778073671 | 20.56° C | 65% | 1004.2 hPa | 0 mm | - | 750 W/m² | - |
| 1778073071 | 20° C | 66% | 1004.3 hPa | 0 mm | - | 396 W/m² | - |
| 1778072471 | 20° C | 70% | 1004.4 hPa | 0 mm | - | 341 W/m² | - |
| 1778070672 | 18.89° C | 70% | 1004.3 hPa | 0 mm | - | 381 W/m² | - |
| 1778070072 | 18.89° C | 72% | 1004.2 hPa | 0 mm | - | 434 W/m² | - |
| 1778068871 | 19.44° C | 71% | 1004.2 hPa | 0 mm | - | 252 W/m² | - |
* Rain latest hour (hover to see other rain measurements)
** Current wind speed in m/s (hover to see current wind gust speed)